Airfield :
LOGIN :

Register | Disclaimer

   EN    FR    IT 

 










Legend :    VFR   Marginal VFR   IFR   Intensive IFR   Very Intensive IFR
Visi :
Ceiling :
>= 8 km
>= 3000ft
5 to 8 km
1000 to 3000 ft
1500m to 5 km
500 to 1000 ft
800 to 1500m
200 to 500 ft
< 800m
< 200 ft
Symbols :   Thunderstorms  Fog  Heavy snow  Heavy precipitations  Wind > 20 kt
SIGMETs :     Misc.  Thunderstorms  Icing  Turbulence  Mountain Waves  Volcanic Ashes






- Airport Elevation : 116 ft
- IATA code : ISC


EGHE - Scilly Isles / St Mary's

CURRENT METAR :
  • 081120Z 36011KT 9999 5000N FEW001 SCT002 BKN006 18/16 Q1022

EXPIRED METARs :
  • 081050Z 34012KT 9999 FEW005 18/15 Q1022
  • 081020Z 36009KT 9999 FEW005 19/17 Q1022
  • 080950Z 36010KT 9999 BKN005 18/16 Q1022
  • 080920Z 36009KT 9999 FEW005 18/16 Q1022
  • 080850Z 34008KT 9999 FEW005 18/16 Q1022
  • 080820Z 34008KT CAVOK 18/16 Q1022

TAF TAF EGHE
Valid from the 08 at 12:00 until the 08 at 18:00 UTC


081058Z 0812/0818 35009KT 9999 FEW005
TEMPO 0812/0818 BKN005
PROB30
TEMPO 0812/0818 0200 FG BKN001



MET'MAP, your aeronautical weather chart ! - Copyright ORBIFLY December 2007 - Disclaimer

ORBIFLY MET'MAP TEAM :

Programming & Development : Alexandra Zaïnal
Concept & original design : Baudouin d'Aumeries
Assistance for programming : Marc-Olivier Méhu
Technical & hardware support : Manuel Goepfert

Contact : metmap@orbifly.com




SOURCES & CREDITS :

   NOAA